sensor_id;sensor_type;location;lat;lon;timestamp;P1;durP1;ratioP1;P2;durP2;ratioP2
71166;SDS011;58864;45.928;20.078;2022-12-07T00:01:11;459.80;;;165.30;;
71166;SDS011;58864;45.928;20.078;2022-12-07T00:03:40;449.90;;;164.93;;
71166;SDS011;58864;45.928;20.078;2022-12-07T00:06:07;463.40;;;168.17;;
71166;SDS011;58864;45.928;20.078;2022-12-07T00:08:33;454.42;;;166.52;;
71166;SDS011;58864;45.928;20.078;2022-12-07T00:11:04;467.83;;;160.50;;
71166;SDS011;58864;45.928;20.078;2022-12-07T00:13:30;448.02;;;161.80;;
71166;SDS011;58864;45.928;20.078;2022-12-07T00:15:55;427.17;;;149.55;;
71166;SDS011;58864;45.928;20.078;2022-12-07T00:18:20;424.57;;;155.30;;
71166;SDS011;58864;45.928;20.078;2022-12-07T00:20:44;419.17;;;150.00;;
71166;SDS011;58864;45.928;20.078;2022-12-07T00:23:08;437.97;;;154.17;;
71166;SDS011;58864;45.928;20.078;2022-12-07T00:25:33;412.27;;;147.63;;
71166;SDS011;58864;45.928;20.078;2022-12-07T00:27:57;447.30;;;153.80;;
71166;SDS011;58864;45.928;20.078;2022-12-07T00:30:22;419.23;;;151.80;;
71166;SDS011;58864;45.928;20.078;2022-12-07T00:32:47;424.75;;;145.98;;
71166;SDS011;58864;45.928;20.078;2022-12-07T00:35:11;421.50;;;148.73;;
71166;SDS011;58864;45.928;20.078;2022-12-07T00:37:36;440.57;;;154.53;;
71166;SDS011;58864;45.928;20.078;2022-12-07T00:40:00;439.80;;;160.53;;
71166;SDS011;58864;45.928;20.078;2022-12-07T00:42:24;446.73;;;159.48;;
71166;SDS011;58864;45.928;20.078;2022-12-07T00:44:49;483.57;;;175.83;;
71166;SDS011;58864;45.928;20.078;2022-12-07T00:47:13;505.67;;;187.27;;
71166;SDS011;58864;45.928;20.078;2022-12-07T00:49:38;527.23;;;192.47;;
71166;SDS011;58864;45.928;20.078;2022-12-07T00:52:02;546.10;;;199.07;;
71166;SDS011;58864;45.928;20.078;2022-12-07T00:54:27;550.17;;;204.60;;
71166;SDS011;58864;45.928;20.078;2022-12-07T00:56:51;559.80;;;202.43;;
71166;SDS011;58864;45.928;20.078;2022-12-07T00:59:15;531.20;;;199.97;;
71166;SDS011;58864;45.928;20.078;2022-12-07T01:01:40;511.50;;;191.88;;
71166;SDS011;58864;45.928;20.078;2022-12-07T01:04:05;477.97;;;165.47;;
71166;SDS011;58864;45.928;20.078;2022-12-07T01:06:29;432.17;;;142.90;;
71166;SDS011;58864;45.928;20.078;2022-12-07T01:08:54;419.90;;;147.00;;
71166;SDS011;58864;45.928;20.078;2022-12-07T01:11:20;388.67;;;128.80;;
71166;SDS011;58864;45.928;20.078;2022-12-07T01:13:49;394.87;;;124.60;;
71166;SDS011;58864;45.928;20.078;2022-12-07T01:16:18;368.63;;;124.28;;
71166;SDS011;58864;45.928;20.078;2022-12-07T01:18:45;342.05;;;117.82;;
71166;SDS011;58864;45.928;20.078;2022-12-07T01:21:11;333.50;;;109.72;;
71166;SDS011;58864;45.928;20.078;2022-12-07T01:23:37;316.60;;;107.90;;
71166;SDS011;58864;45.928;20.078;2022-12-07T01:26:03;333.70;;;109.80;;
71166;SDS011;58864;45.928;20.078;2022-12-07T01:28:29;317.92;;;107.10;;
71166;SDS011;58864;45.928;20.078;2022-12-07T01:31:01;316.53;;;110.63;;
71166;SDS011;58864;45.928;20.078;2022-12-07T01:33:28;301.35;;;104.45;;
71166;SDS011;58864;45.928;20.078;2022-12-07T01:35:53;245.82;;;82.70;;
71166;SDS011;58864;45.928;20.078;2022-12-07T01:38:18;250.80;;;81.03;;
71166;SDS011;58864;45.928;20.078;2022-12-07T01:40:42;232.20;;;76.53;;
71166;SDS011;58864;45.928;20.078;2022-12-07T01:43:17;205.83;;;70.47;;
71166;SDS011;58864;45.928;20.078;2022-12-07T01:45:42;217.30;;;67.82;;
71166;SDS011;58864;45.928;20.078;2022-12-07T01:48:07;174.97;;;63.13;;
71166;SDS011;58864;45.928;20.078;2022-12-07T01:50:33;180.07;;;66.28;;
71166;SDS011;58864;45.928;20.078;2022-12-07T01:52:58;162.93;;;56.47;;
71166;SDS011;58864;45.928;20.078;2022-12-07T01:55:25;188.03;;;63.73;;
71166;SDS011;58864;45.928;20.078;2022-12-07T01:57:51;202.02;;;65.53;;
71166;SDS011;58864;45.928;20.078;2022-12-07T02:00:17;201.02;;;69.95;;
71166;SDS011;58864;45.928;20.078;2022-12-07T02:05:15;182.57;;;64.78;;
71166;SDS011;58864;45.928;20.078;2022-12-07T02:07:40;178.43;;;59.40;;
71166;SDS011;58864;45.928;20.078;2022-12-07T02:12:59;155.77;;;57.20;;
71166;SDS011;58864;45.928;20.078;2022-12-07T02:15:28;159.70;;;57.83;;
71166;SDS011;58864;45.928;20.078;2022-12-07T02:18:11;167.10;;;51.70;;
71166;SDS011;58864;45.928;20.078;2022-12-07T02:31:28;135.65;;;49.38;;
71166;SDS011;58864;45.928;20.078;2022-12-07T02:33:54;137.77;;;47.70;;
71166;SDS011;58864;45.928;20.078;2022-12-07T02:36:54;133.25;;;46.08;;
71166;SDS011;58864;45.928;20.078;2022-12-07T02:39:37;128.68;;;43.45;;
71166;SDS011;58864;45.928;20.078;2022-12-07T02:42:09;118.43;;;42.88;;
71166;SDS011;58864;45.928;20.078;2022-12-07T02:44:41;133.18;;;44.67;;
71166;SDS011;58864;45.928;20.078;2022-12-07T02:47:07;125.60;;;43.07;;
71166;SDS011;58864;45.928;20.078;2022-12-07T02:49:33;132.20;;;45.05;;
71166;SDS011;58864;45.928;20.078;2022-12-07T02:51:59;134.13;;;46.38;;
71166;SDS011;58864;45.928;20.078;2022-12-07T02:54:24;142.13;;;47.10;;
71166;SDS011;58864;45.928;20.078;2022-12-07T02:59:31;138.77;;;50.27;;
71166;SDS011;58864;45.928;20.078;2022-12-07T03:10:02;141.23;;;50.70;;
71166;SDS011;58864;45.928;20.078;2022-12-07T03:15:16;178.77;;;61.33;;
71166;SDS011;58864;45.928;20.078;2022-12-07T03:17:44;152.73;;;55.73;;
71166;SDS011;58864;45.928;20.078;2022-12-07T03:20:11;147.52;;;52.22;;
71166;SDS011;58864;45.928;20.078;2022-12-07T03:22:38;132.50;;;49.38;;
71166;SDS011;58864;45.928;20.078;2022-12-07T03:25:05;135.23;;;49.15;;
71166;SDS011;58864;45.928;20.078;2022-12-07T03:27:43;162.88;;;56.15;;
71166;SDS011;58864;45.928;20.078;2022-12-07T03:30:14;155.93;;;52.20;;
71166;SDS011;58864;45.928;20.078;2022-12-07T03:32:43;151.60;;;55.90;;
71166;SDS011;58864;45.928;20.078;2022-12-07T03:35:17;176.95;;;56.65;;
71166;SDS011;58864;45.928;20.078;2022-12-07T03:40:54;131.80;;;45.58;;
71166;SDS011;58864;45.928;20.078;2022-12-07T03:43:24;130.07;;;39.17;;
71166;SDS011;58864;45.928;20.078;2022-12-07T03:48:25;118.95;;;39.90;;
71166;SDS011;58864;45.928;20.078;2022-12-07T03:51:01;96.37;;;37.07;;
71166;SDS011;58864;45.928;20.078;2022-12-07T03:53:34;121.95;;;39.40;;
71166;SDS011;58864;45.928;20.078;2022-12-07T03:56:01;110.32;;;38.28;;
71166;SDS011;58864;45.928;20.078;2022-12-07T03:58:26;116.95;;;37.40;;
71166;SDS011;58864;45.928;20.078;2022-12-07T04:00:51;106.87;;;35.03;;
71166;SDS011;58864;45.928;20.078;2022-12-07T04:03:16;88.32;;;31.02;;
71166;SDS011;58864;45.928;20.078;2022-12-07T04:05:40;89.53;;;34.30;;
71166;SDS011;58864;45.928;20.078;2022-12-07T04:08:04;96.53;;;33.33;;
71166;SDS011;58864;45.928;20.078;2022-12-07T04:10:29;91.00;;;31.55;;
71166;SDS011;58864;45.928;20.078;2022-12-07T04:12:54;101.17;;;34.30;;
71166;SDS011;58864;45.928;20.078;2022-12-07T04:15:19;100.88;;;34.08;;
71166;SDS011;58864;45.928;20.078;2022-12-07T04:17:43;117.93;;;37.37;;
71166;SDS011;58864;45.928;20.078;2022-12-07T04:20:08;100.73;;;34.00;;
71166;SDS011;58864;45.928;20.078;2022-12-07T04:22:33;100.50;;;36.30;;
71166;SDS011;58864;45.928;20.078;2022-12-07T04:24:57;95.13;;;29.83;;
71166;SDS011;58864;45.928;20.078;2022-12-07T04:27:22;77.30;;;32.05;;
71166;SDS011;58864;45.928;20.078;2022-12-07T04:29:46;76.13;;;29.50;;
71166;SDS011;58864;45.928;20.078;2022-12-07T04:32:11;78.63;;;26.77;;
71166;SDS011;58864;45.928;20.078;2022-12-07T04:34:35;56.73;;;21.17;;
71166;SDS011;58864;45.928;20.078;2022-12-07T04:37:00;55.65;;;21.45;;
71166;SDS011;58864;45.928;20.078;2022-12-07T04:39:30;54.53;;;20.15;;
71166;SDS011;58864;45.928;20.078;2022-12-07T04:41:56;54.38;;;20.20;;
71166;SDS011;58864;45.928;20.078;2022-12-07T04:44:21;50.50;;;18.40;;
71166;SDS011;58864;45.928;20.078;2022-12-07T04:46:46;47.57;;;16.23;;
71166;SDS011;58864;45.928;20.078;2022-12-07T04:49:11;54.65;;;16.95;;
71166;SDS011;58864;45.928;20.078;2022-12-07T04:51:36;43.58;;;15.00;;
71166;SDS011;58864;45.928;20.078;2022-12-07T04:54:01;55.63;;;18.17;;
71166;SDS011;58864;45.928;20.078;2022-12-07T04:56:25;38.47;;;14.40;;
71166;SDS011;58864;45.928;20.078;2022-12-07T04:58:50;31.85;;;12.85;;
71166;SDS011;58864;45.928;20.078;2022-12-07T05:01:16;37.58;;;13.00;;
71166;SDS011;58864;45.928;20.078;2022-12-07T05:03:41;33.77;;;13.93;;
71166;SDS011;58864;45.928;20.078;2022-12-07T05:06:06;37.53;;;13.75;;
71166;SDS011;58864;45.928;20.078;2022-12-07T05:08:31;36.58;;;12.90;;
71166;SDS011;58864;45.928;20.078;2022-12-07T05:10:56;32.10;;;10.95;;
71166;SDS011;58864;45.928;20.078;2022-12-07T05:13:21;28.83;;;11.43;;
71166;SDS011;58864;45.928;20.078;2022-12-07T05:15:48;33.80;;;11.70;;
71166;SDS011;58864;45.928;20.078;2022-12-07T05:18:13;32.05;;;12.23;;
71166;SDS011;58864;45.928;20.078;2022-12-07T05:20:38;34.47;;;12.20;;
71166;SDS011;58864;45.928;20.078;2022-12-07T05:23:03;30.63;;;11.02;;
71166;SDS011;58864;45.928;20.078;2022-12-07T05:25:28;38.33;;;13.03;;
71166;SDS011;58864;45.928;20.078;2022-12-07T05:27:54;33.30;;;12.67;;
71166;SDS011;58864;45.928;20.078;2022-12-07T05:30:19;31.25;;;11.13;;
71166;SDS011;58864;45.928;20.078;2022-12-07T05:32:43;34.43;;;12.10;;
71166;SDS011;58864;45.928;20.078;2022-12-07T05:35:08;39.00;;;12.37;;
71166;SDS011;58864;45.928;20.078;2022-12-07T05:37:32;34.83;;;12.30;;
71166;SDS011;58864;45.928;20.078;2022-12-07T05:39:57;32.20;;;10.10;;
71166;SDS011;58864;45.928;20.078;2022-12-07T05:42:21;35.67;;;11.63;;
71166;SDS011;58864;45.928;20.078;2022-12-07T05:44:46;31.80;;;11.50;;
71166;SDS011;58864;45.928;20.078;2022-12-07T05:47:11;35.53;;;10.83;;
71166;SDS011;58864;45.928;20.078;2022-12-07T05:49:36;39.08;;;10.05;;
71166;SDS011;58864;45.928;20.078;2022-12-07T05:52:01;22.83;;;9.07;;
71166;SDS011;58864;45.928;20.078;2022-12-07T05:54:26;25.98;;;9.35;;
71166;SDS011;58864;45.928;20.078;2022-12-07T05:56:50;23.37;;;7.57;;
71166;SDS011;58864;45.928;20.078;2022-12-07T05:59:15;24.88;;;8.80;;
71166;SDS011;58864;45.928;20.078;2022-12-07T06:02:02;26.87;;;9.83;;
71166;SDS011;58864;45.928;20.078;2022-12-07T06:04:29;20.67;;;9.18;;
71166;SDS011;58864;45.928;20.078;2022-12-07T06:06:55;23.00;;;8.52;;
71166;SDS011;58864;45.928;20.078;2022-12-07T06:09:20;25.43;;;8.17;;
71166;SDS011;58864;45.928;20.078;2022-12-07T06:11:46;30.30;;;8.57;;
71166;SDS011;58864;45.928;20.078;2022-12-07T06:14:29;22.13;;;7.55;;
71166;SDS011;58864;45.928;20.078;2022-12-07T06:16:53;19.77;;;7.87;;
71166;SDS011;58864;45.928;20.078;2022-12-07T06:19:18;21.77;;;6.90;;
71166;SDS011;58864;45.928;20.078;2022-12-07T06:21:42;22.93;;;9.57;;
71166;SDS011;58864;45.928;20.078;2022-12-07T06:24:07;24.93;;;9.67;;
71166;SDS011;58864;45.928;20.078;2022-12-07T06:26:32;30.13;;;9.30;;
71166;SDS011;58864;45.928;20.078;2022-12-07T06:28:57;35.37;;;10.23;;
71166;SDS011;58864;45.928;20.078;2022-12-07T06:31:21;27.90;;;9.83;;
71166;SDS011;58864;45.928;20.078;2022-12-07T06:33:46;25.50;;;10.73;;
71166;SDS011;58864;45.928;20.078;2022-12-07T06:36:10;30.60;;;11.68;;
71166;SDS011;58864;45.928;20.078;2022-12-07T06:38:35;34.57;;;9.70;;
71166;SDS011;58864;45.928;20.078;2022-12-07T06:41:00;29.63;;;12.00;;
71166;SDS011;58864;45.928;20.078;2022-12-07T06:43:24;47.87;;;12.70;;
71166;SDS011;58864;45.928;20.078;2022-12-07T06:45:49;34.83;;;13.63;;
71166;SDS011;58864;45.928;20.078;2022-12-07T06:48:13;42.20;;;15.87;;
71166;SDS011;58864;45.928;20.078;2022-12-07T06:50:38;48.85;;;17.88;;
71166;SDS011;58864;45.928;20.078;2022-12-07T06:53:02;30.30;;;14.53;;
71166;SDS011;58864;45.928;20.078;2022-12-07T06:55:27;32.37;;;13.17;;
71166;SDS011;58864;45.928;20.078;2022-12-07T06:57:51;52.22;;;17.27;;
71166;SDS011;58864;45.928;20.078;2022-12-07T07:00:16;52.60;;;17.57;;
71166;SDS011;58864;45.928;20.078;2022-12-07T07:02:40;77.13;;;27.37;;
71166;SDS011;58864;45.928;20.078;2022-12-07T07:05:05;85.68;;;29.33;;
71166;SDS011;58864;45.928;20.078;2022-12-07T07:07:29;56.30;;;22.17;;
71166;SDS011;58864;45.928;20.078;2022-12-07T07:09:54;55.47;;;20.60;;
71166;SDS011;58864;45.928;20.078;2022-12-07T07:12:19;60.95;;;20.85;;
71166;SDS011;58864;45.928;20.078;2022-12-07T07:14:43;48.33;;;20.53;;
71166;SDS011;58864;45.928;20.078;2022-12-07T07:17:07;54.33;;;19.47;;
71166;SDS011;58864;45.928;20.078;2022-12-07T07:19:32;58.97;;;23.08;;
71166;SDS011;58864;45.928;20.078;2022-12-07T07:21:56;55.00;;;19.43;;
71166;SDS011;58864;45.928;20.078;2022-12-07T07:24:21;42.37;;;18.97;;
71166;SDS011;58864;45.928;20.078;2022-12-07T07:26:45;64.63;;;25.53;;
71166;SDS011;58864;45.928;20.078;2022-12-07T07:29:10;98.22;;;36.45;;
71166;SDS011;58864;45.928;20.078;2022-12-07T07:31:34;70.90;;;28.50;;
71166;SDS011;58864;45.928;20.078;2022-12-07T07:33:59;64.35;;;26.77;;
71166;SDS011;58864;45.928;20.078;2022-12-07T07:36:23;66.67;;;23.90;;
71166;SDS011;58864;45.928;20.078;2022-12-07T07:38:48;53.43;;;20.17;;
71166;SDS011;58864;45.928;20.078;2022-12-07T07:41:12;56.70;;;20.13;;
71166;SDS011;58864;45.928;20.078;2022-12-07T07:43:37;52.93;;;18.40;;
71166;SDS011;58864;45.928;20.078;2022-12-07T07:46:01;54.47;;;19.65;;
71166;SDS011;58864;45.928;20.078;2022-12-07T07:48:25;39.33;;;15.67;;
71166;SDS011;58864;45.928;20.078;2022-12-07T07:50:50;40.93;;;15.57;;
71166;SDS011;58864;45.928;20.078;2022-12-07T07:53:15;48.38;;;15.88;;
71166;SDS011;58864;45.928;20.078;2022-12-07T07:55:39;36.00;;;12.43;;
71166;SDS011;58864;45.928;20.078;2022-12-07T07:58:04;32.17;;;12.03;;
71166;SDS011;58864;45.928;20.078;2022-12-07T08:00:28;32.60;;;13.00;;
71166;SDS011;58864;45.928;20.078;2022-12-07T08:02:52;33.65;;;14.07;;
71166;SDS011;58864;45.928;20.078;2022-12-07T08:05:17;62.80;;;20.17;;
71166;SDS011;58864;45.928;20.078;2022-12-07T08:07:41;243.93;;;57.33;;
71166;SDS011;58864;45.928;20.078;2022-12-07T08:10:06;171.82;;;47.47;;
71166;SDS011;58864;45.928;20.078;2022-12-07T08:12:35;152.15;;;45.05;;
71166;SDS011;58864;45.928;20.078;2022-12-07T08:15:01;194.90;;;58.33;;
71166;SDS011;58864;45.928;20.078;2022-12-07T08:17:26;143.00;;;45.92;;
71166;SDS011;58864;45.928;20.078;2022-12-07T08:19:51;143.87;;;46.07;;
71166;SDS011;58864;45.928;20.078;2022-12-07T08:22:15;175.02;;;50.42;;
71166;SDS011;58864;45.928;20.078;2022-12-07T08:24:39;108.47;;;37.40;;
71166;SDS011;58864;45.928;20.078;2022-12-07T08:27:04;69.33;;;23.80;;
71166;SDS011;58864;45.928;20.078;2022-12-07T08:29:28;92.77;;;40.03;;
71166;SDS011;58864;45.928;20.078;2022-12-07T08:31:53;76.73;;;32.37;;
71166;SDS011;58864;45.928;20.078;2022-12-07T08:34:17;53.93;;;22.10;;
71166;SDS011;58864;45.928;20.078;2022-12-07T08:36:42;40.55;;;17.75;;
71166;SDS011;58864;45.928;20.078;2022-12-07T08:39:06;48.97;;;18.63;;
71166;SDS011;58864;45.928;20.078;2022-12-07T08:41:31;42.73;;;16.70;;
71166;SDS011;58864;45.928;20.078;2022-12-07T08:43:55;44.38;;;18.55;;
71166;SDS011;58864;45.928;20.078;2022-12-07T08:46:24;38.87;;;16.53;;
71166;SDS011;58864;45.928;20.078;2022-12-07T08:48:54;48.55;;;19.02;;
71166;SDS011;58864;45.928;20.078;2022-12-07T08:51:21;43.73;;;15.90;;
71166;SDS011;58864;45.928;20.078;2022-12-07T08:53:46;41.78;;;15.57;;
71166;SDS011;58864;45.928;20.078;2022-12-07T08:56:11;33.60;;;15.52;;
71166;SDS011;58864;45.928;20.078;2022-12-07T08:58:36;40.07;;;15.77;;
71166;SDS011;58864;45.928;20.078;2022-12-07T09:01:01;25.92;;;10.52;;
71166;SDS011;58864;45.928;20.078;2022-12-07T09:03:26;17.60;;;8.55;;
71166;SDS011;58864;45.928;20.078;2022-12-07T09:05:52;43.77;;;15.80;;
71166;SDS011;58864;45.928;20.078;2022-12-07T09:08:17;34.92;;;12.70;;
71166;SDS011;58864;45.928;20.078;2022-12-07T09:10:41;34.47;;;13.43;;
71166;SDS011;58864;45.928;20.078;2022-12-07T09:13:06;21.23;;;8.63;;
71166;SDS011;58864;45.928;20.078;2022-12-07T09:15:31;27.20;;;10.93;;
71166;SDS011;58864;45.928;20.078;2022-12-07T09:17:55;28.37;;;11.80;;
71166;SDS011;58864;45.928;20.078;2022-12-07T09:20:20;17.60;;;7.53;;
71166;SDS011;58864;45.928;20.078;2022-12-07T09:22:45;35.58;;;12.45;;
71166;SDS011;58864;45.928;20.078;2022-12-07T09:25:09;29.20;;;12.40;;
71166;SDS011;58864;45.928;20.078;2022-12-07T09:27:34;27.25;;;10.65;;
71166;SDS011;58864;45.928;20.078;2022-12-07T09:29:58;39.10;;;15.70;;
71166;SDS011;58864;45.928;20.078;2022-12-07T09:32:23;51.33;;;20.57;;
71166;SDS011;58864;45.928;20.078;2022-12-07T09:34:47;42.47;;;15.33;;
71166;SDS011;58864;45.928;20.078;2022-12-07T09:37:11;67.40;;;22.37;;
71166;SDS011;58864;45.928;20.078;2022-12-07T09:39:39;61.47;;;18.80;;
71166;SDS011;58864;45.928;20.078;2022-12-07T09:42:04;50.92;;;15.30;;
71166;SDS011;58864;45.928;20.078;2022-12-07T09:44:28;65.67;;;19.83;;
71166;SDS011;58864;45.928;20.078;2022-12-07T09:46:53;54.67;;;20.30;;
71166;SDS011;58864;45.928;20.078;2022-12-07T09:49:18;51.03;;;17.73;;
71166;SDS011;58864;45.928;20.078;2022-12-07T09:51:43;43.83;;;15.82;;
71166;SDS011;58864;45.928;20.078;2022-12-07T09:54:08;32.10;;;12.33;;
71166;SDS011;58864;45.928;20.078;2022-12-07T09:56:36;32.58;;;12.90;;
71166;SDS011;58864;45.928;20.078;2022-12-07T09:59:01;30.07;;;12.50;;
71166;SDS011;58864;45.928;20.078;2022-12-07T10:01:28;32.08;;;13.63;;
71166;SDS011;58864;45.928;20.078;2022-12-07T10:03:55;32.83;;;12.95;;
71166;SDS011;58864;45.928;20.078;2022-12-07T10:06:24;28.97;;;12.47;;
71166;SDS011;58864;45.928;20.078;2022-12-07T10:08:49;33.70;;;15.00;;
71166;SDS011;58864;45.928;20.078;2022-12-07T10:11:13;31.63;;;13.03;;
71166;SDS011;58864;45.928;20.078;2022-12-07T10:13:41;25.15;;;10.63;;
71166;SDS011;58864;45.928;20.078;2022-12-07T10:18:48;38.03;;;18.57;;
71166;SDS011;58864;45.928;20.078;2022-12-07T10:21:17;55.60;;;24.95;;
71166;SDS011;58864;45.928;20.078;2022-12-07T10:26:33;18.40;;;8.70;;
71166;SDS011;58864;45.928;20.078;2022-12-07T10:31:49;24.33;;;11.40;;
71166;SDS011;58864;45.928;20.078;2022-12-07T10:34:43;25.55;;;9.73;;
71166;SDS011;58864;45.928;20.078;2022-12-07T10:42:15;13.98;;;5.78;;
71166;SDS011;58864;45.928;20.078;2022-12-07T10:44:40;16.30;;;6.78;;
71166;SDS011;58864;45.928;20.078;2022-12-07T10:55:21;34.60;;;14.05;;
71166;SDS011;58864;45.928;20.078;2022-12-07T11:03:24;31.90;;;12.97;;
71166;SDS011;58864;45.928;20.078;2022-12-07T11:11:08;25.90;;;8.88;;
71166;SDS011;58864;45.928;20.078;2022-12-07T11:18:52;27.13;;;10.05;;
71166;SDS011;58864;45.928;20.078;2022-12-07T11:23:48;27.25;;;10.27;;
71166;SDS011;58864;45.928;20.078;2022-12-07T11:29:19;20.30;;;9.07;;
71166;SDS011;58864;45.928;20.078;2022-12-07T11:31:54;23.52;;;9.40;;
71166;SDS011;58864;45.928;20.078;2022-12-07T11:37:32;25.45;;;10.95;;
71166;SDS011;58864;45.928;20.078;2022-12-07T11:39:59;28.67;;;10.90;;
71166;SDS011;58864;45.928;20.078;2022-12-07T11:42:41;21.33;;;7.47;;
71166;SDS011;58864;45.928;20.078;2022-12-07T11:45:13;15.88;;;6.78;;
71166;SDS011;58864;45.928;20.078;2022-12-07T11:53:02;34.83;;;14.10;;
71166;SDS011;58864;45.928;20.078;2022-12-07T11:55:35;28.33;;;9.77;;
71166;SDS011;58864;45.928;20.078;2022-12-07T11:58:53;20.98;;;8.20;;
71166;SDS011;58864;45.928;20.078;2022-12-07T12:01:12;35.35;;;13.55;;
71166;SDS011;58864;45.928;20.078;2022-12-07T12:03:38;71.25;;;28.40;;
71166;SDS011;58864;45.928;20.078;2022-12-07T12:06:06;41.88;;;18.52;;
71166;SDS011;58864;45.928;20.078;2022-12-07T12:08:32;39.40;;;18.90;;
71166;SDS011;58864;45.928;20.078;2022-12-07T12:21:12;80.35;;;26.75;;
71166;SDS011;58864;45.928;20.078;2022-12-07T12:23:41;50.47;;;17.25;;
71166;SDS011;58864;45.928;20.078;2022-12-07T12:26:08;39.75;;;17.98;;
71166;SDS011;58864;45.928;20.078;2022-12-07T12:33:45;28.02;;;12.40;;
71166;SDS011;58864;45.928;20.078;2022-12-07T12:38:49;56.33;;;24.27;;
71166;SDS011;58864;45.928;20.078;2022-12-07T12:47:01;90.32;;;29.02;;
71166;SDS011;58864;45.928;20.078;2022-12-07T12:54:38;48.40;;;20.73;;
71166;SDS011;58864;45.928;20.078;2022-12-07T13:02:22;35.50;;;16.58;;
71166;SDS011;58864;45.928;20.078;2022-12-07T13:10:24;25.15;;;11.20;;
71166;SDS011;58864;45.928;20.078;2022-12-07T13:15:39;35.45;;;17.60;;
71166;SDS011;58864;45.928;20.078;2022-12-07T13:23:08;24.60;;;11.93;;
71166;SDS011;58864;45.928;20.078;2022-12-07T13:25:34;32.75;;;14.32;;
71166;SDS011;58864;45.928;20.078;2022-12-07T13:28:02;29.33;;;14.23;;
71166;SDS011;58864;45.928;20.078;2022-12-07T13:30:40;43.50;;;21.57;;
71166;SDS011;58864;45.928;20.078;2022-12-07T13:33:09;51.38;;;30.05;;
71166;SDS011;58864;45.928;20.078;2022-12-07T13:35:34;46.60;;;22.77;;
71166;SDS011;58864;45.928;20.078;2022-12-07T13:38:02;38.63;;;19.10;;
71166;SDS011;58864;45.928;20.078;2022-12-07T13:40:39;31.10;;;16.75;;
71166;SDS011;58864;45.928;20.078;2022-12-07T13:43:04;26.37;;;12.67;;
71166;SDS011;58864;45.928;20.078;2022-12-07T13:45:30;28.92;;;13.80;;
71166;SDS011;58864;45.928;20.078;2022-12-07T13:48:22;30.08;;;13.30;;
71166;SDS011;58864;45.928;20.078;2022-12-07T13:53:50;60.05;;;31.00;;
71166;SDS011;58864;45.928;20.078;2022-12-07T13:56:16;47.97;;;21.07;;
71166;SDS011;58864;45.928;20.078;2022-12-07T13:58:41;46.88;;;22.13;;
71166;SDS011;58864;45.928;20.078;2022-12-07T14:01:05;35.10;;;15.07;;
71166;SDS011;58864;45.928;20.078;2022-12-07T14:03:31;26.13;;;12.00;;
71166;SDS011;58864;45.928;20.078;2022-12-07T14:06:22;70.87;;;33.70;;
71166;SDS011;58864;45.928;20.078;2022-12-07T14:09:08;52.58;;;25.65;;
71166;SDS011;58864;45.928;20.078;2022-12-07T14:11:39;43.40;;;20.13;;
71166;SDS011;58864;45.928;20.078;2022-12-07T14:14:04;45.70;;;19.97;;
71166;SDS011;58864;45.928;20.078;2022-12-07T14:19:02;58.05;;;23.98;;
71166;SDS011;58864;45.928;20.078;2022-12-07T14:21:28;140.38;;;61.85;;
71166;SDS011;58864;45.928;20.078;2022-12-07T14:24:11;41.10;;;16.60;;
71166;SDS011;58864;45.928;20.078;2022-12-07T14:26:40;40.53;;;17.23;;
71166;SDS011;58864;45.928;20.078;2022-12-07T14:32:24;45.17;;;18.50;;
71166;SDS011;58864;45.928;20.078;2022-12-07T14:34:57;33.03;;;12.50;;
71166;SDS011;58864;45.928;20.078;2022-12-07T14:37:22;37.00;;;14.43;;
71166;SDS011;58864;45.928;20.078;2022-12-07T14:39:47;39.83;;;15.50;;
71166;SDS011;58864;45.928;20.078;2022-12-07T14:42:11;54.37;;;20.33;;
71166;SDS011;58864;45.928;20.078;2022-12-07T14:44:36;63.83;;;24.20;;
71166;SDS011;58864;45.928;20.078;2022-12-07T14:47:00;76.40;;;24.47;;
71166;SDS011;58864;45.928;20.078;2022-12-07T14:49:25;74.93;;;27.90;;
71166;SDS011;58864;45.928;20.078;2022-12-07T14:51:49;92.63;;;30.95;;
71166;SDS011;58864;45.928;20.078;2022-12-07T14:54:17;77.27;;;29.00;;
71166;SDS011;58864;45.928;20.078;2022-12-07T14:56:43;58.30;;;23.73;;
71166;SDS011;58864;45.928;20.078;2022-12-07T14:59:10;96.22;;;36.05;;
71166;SDS011;58864;45.928;20.078;2022-12-07T15:01:35;107.37;;;39.47;;
71166;SDS011;58864;45.928;20.078;2022-12-07T15:03:59;85.90;;;34.03;;
71166;SDS011;58864;45.928;20.078;2022-12-07T15:06:24;97.83;;;38.03;;
71166;SDS011;58864;45.928;20.078;2022-12-07T15:08:48;81.30;;;32.30;;
71166;SDS011;58864;45.928;20.078;2022-12-07T15:11:16;81.10;;;34.00;;
71166;SDS011;58864;45.928;20.078;2022-12-07T15:13:41;94.28;;;35.20;;
71166;SDS011;58864;45.928;20.078;2022-12-07T15:16:24;78.05;;;34.45;;
71166;SDS011;58864;45.928;20.078;2022-12-07T15:18:49;77.70;;;29.67;;
71166;SDS011;58864;45.928;20.078;2022-12-07T15:21:14;55.47;;;21.33;;
71166;SDS011;58864;45.928;20.078;2022-12-07T15:23:39;56.90;;;23.52;;
71166;SDS011;58864;45.928;20.078;2022-12-07T15:26:03;56.93;;;23.70;;
71166;SDS011;58864;45.928;20.078;2022-12-07T15:28:28;68.18;;;26.30;;
71166;SDS011;58864;45.928;20.078;2022-12-07T15:30:52;77.90;;;29.60;;
71166;SDS011;58864;45.928;20.078;2022-12-07T15:33:17;71.87;;;29.73;;
71166;SDS011;58864;45.928;20.078;2022-12-07T15:35:45;83.97;;;28.97;;
71166;SDS011;58864;45.928;20.078;2022-12-07T15:38:09;145.32;;;58.72;;
71166;SDS011;58864;45.928;20.078;2022-12-07T15:40:34;197.27;;;80.83;;
71166;SDS011;58864;45.928;20.078;2022-12-07T15:42:59;213.43;;;77.00;;
71166;SDS011;58864;45.928;20.078;2022-12-07T15:45:23;322.47;;;98.87;;
71166;SDS011;58864;45.928;20.078;2022-12-07T15:47:48;310.27;;;110.70;;
71166;SDS011;58864;45.928;20.078;2022-12-07T15:50:13;256.85;;;99.13;;
71166;SDS011;58864;45.928;20.078;2022-12-07T15:52:40;221.75;;;87.40;;
71166;SDS011;58864;45.928;20.078;2022-12-07T15:55:04;200.60;;;71.17;;
71166;SDS011;58864;45.928;20.078;2022-12-07T15:57:29;177.98;;;62.85;;
71166;SDS011;58864;45.928;20.078;2022-12-07T15:59:54;176.88;;;61.13;;
71166;SDS011;58864;45.928;20.078;2022-12-07T16:02:19;176.40;;;62.87;;
71166;SDS011;58864;45.928;20.078;2022-12-07T16:04:43;159.03;;;59.97;;
71166;SDS011;58864;45.928;20.078;2022-12-07T16:07:08;166.20;;;61.53;;
71166;SDS011;58864;45.928;20.078;2022-12-07T16:09:33;149.87;;;57.47;;
71166;SDS011;58864;45.928;20.078;2022-12-07T16:11:57;146.23;;;53.87;;
71166;SDS011;58864;45.928;20.078;2022-12-07T16:14:21;149.90;;;54.33;;
71166;SDS011;58864;45.928;20.078;2022-12-07T16:16:46;156.70;;;57.60;;
71166;SDS011;58864;45.928;20.078;2022-12-07T16:19:11;212.77;;;76.57;;
71166;SDS011;58864;45.928;20.078;2022-12-07T16:21:35;301.07;;;125.97;;
71166;SDS011;58864;45.928;20.078;2022-12-07T16:24:00;288.23;;;115.85;;